Terminal Aerodrome Forecast
Issued by NWS Brownsville, TX

Home | Current Version | Previous Version | Text Only | Print | Product List | Glossary On
Versions: 1 2 3 4 5 6 7 8 9 10 11 12 13
000
FTUS44 KBRO 282320
TAFHRL
TAF
KHRL 282320Z 2900/2924 17012G19KT P6SM SKC
     FM290200 16010KT P6SM SKC
     FM291500 16023G30KT P6SM FEW030=

USA.gov is the U.S. government's official web portal to all federal, state and local government web resources and services.